sensor_id;sensor_type;location;lat;lon;timestamp;P1;durP1;ratioP1;P2;durP2;ratioP2
27539;SDS011;15906;52.046;4.724;2022-09-29T00:00:09;9.30;;;5.43;;
27539;SDS011;15906;52.046;4.724;2022-09-29T00:02:36;8.70;;;5.40;;
27539;SDS011;15906;52.046;4.724;2022-09-29T00:05:02;9.35;;;5.63;;
27539;SDS011;15906;52.046;4.724;2022-09-29T00:07:28;6.65;;;4.82;;
27539;SDS011;15906;52.046;4.724;2022-09-29T00:09:53;7.88;;;5.13;;
27539;SDS011;15906;52.046;4.724;2022-09-29T00:12:19;7.63;;;5.55;;
27539;SDS011;15906;52.046;4.724;2022-09-29T00:14:44;11.00;;;6.30;;
27539;SDS011;15906;52.046;4.724;2022-09-29T00:17:10;7.85;;;5.63;;
27539;SDS011;15906;52.046;4.724;2022-09-29T00:19:36;8.50;;;6.18;;
27539;SDS011;15906;52.046;4.724;2022-09-29T00:22:01;9.93;;;5.40;;
27539;SDS011;15906;52.046;4.724;2022-09-29T00:24:27;9.57;;;5.03;;
27539;SDS011;15906;52.046;4.724;2022-09-29T00:26:53;7.15;;;5.63;;
27539;SDS011;15906;52.046;4.724;2022-09-29T00:29:19;8.40;;;5.15;;
27539;SDS011;15906;52.046;4.724;2022-09-29T00:31:44;7.90;;;5.43;;
27539;SDS011;15906;52.046;4.724;2022-09-29T00:34:10;9.40;;;5.32;;
27539;SDS011;15906;52.046;4.724;2022-09-29T00:36:35;7.35;;;4.55;;
27539;SDS011;15906;52.046;4.724;2022-09-29T00:39:02;7.10;;;4.60;;
27539;SDS011;15906;52.046;4.724;2022-09-29T00:41:29;7.00;;;5.13;;
27539;SDS011;15906;52.046;4.724;2022-09-29T00:46:55;6.75;;;5.10;;
27539;SDS011;15906;52.046;4.724;2022-09-29T00:49:26;8.23;;;5.88;;
27539;SDS011;15906;52.046;4.724;2022-09-29T00:52:05;7.57;;;5.78;;
27539;SDS011;15906;52.046;4.724;2022-09-29T00:54:36;6.30;;;5.00;;
27539;SDS011;15906;52.046;4.724;2022-09-29T00:57:13;6.80;;;5.22;;
27539;SDS011;15906;52.046;4.724;2022-09-29T00:59:54;11.43;;;5.65;;
27539;SDS011;15906;52.046;4.724;2022-09-29T01:02:26;9.82;;;5.53;;
27539;SDS011;15906;52.046;4.724;2022-09-29T01:04:54;10.70;;;5.35;;
27539;SDS011;15906;52.046;4.724;2022-09-29T01:07:20;11.40;;;6.50;;
27539;SDS011;15906;52.046;4.724;2022-09-29T01:09:47;10.48;;;6.57;;
27539;SDS011;15906;52.046;4.724;2022-09-29T01:12:14;8.70;;;6.60;;
27539;SDS011;15906;52.046;4.724;2022-09-29T01:14:40;12.35;;;6.95;;
27539;SDS011;15906;52.046;4.724;2022-09-29T01:17:07;10.18;;;6.15;;
27539;SDS011;15906;52.046;4.724;2022-09-29T01:28:14;8.23;;;6.30;;
27539;SDS011;15906;52.046;4.724;2022-09-29T01:36:34;9.20;;;6.25;;
27539;SDS011;15906;52.046;4.724;2022-09-29T01:39:14;9.05;;;6.53;;
27539;SDS011;15906;52.046;4.724;2022-09-29T01:42:08;8.88;;;5.88;;
27539;SDS011;15906;52.046;4.724;2022-09-29T01:44:45;9.48;;;6.38;;
27539;SDS011;15906;52.046;4.724;2022-09-29T01:47:25;12.15;;;8.07;;
27539;SDS011;15906;52.046;4.724;2022-09-29T01:50:00;10.95;;;7.95;;
27539;SDS011;15906;52.046;4.724;2022-09-29T01:52:42;12.48;;;8.23;;
27539;SDS011;15906;52.046;4.724;2022-09-29T01:55:11;13.98;;;10.25;;
27539;SDS011;15906;52.046;4.724;2022-09-29T02:00:30;15.68;;;9.75;;
27539;SDS011;15906;52.046;4.724;2022-09-29T02:03:16;15.68;;;9.73;;
27539;SDS011;15906;52.046;4.724;2022-09-29T02:05:48;10.85;;;9.15;;
27539;SDS011;15906;52.046;4.724;2022-09-29T02:11:09;14.55;;;8.52;;
27539;SDS011;15906;52.046;4.724;2022-09-29T02:13:39;9.88;;;8.07;;
27539;SDS011;15906;52.046;4.724;2022-09-29T02:16:11;12.70;;;8.48;;
27539;SDS011;15906;52.046;4.724;2022-09-29T02:18:51;10.93;;;8.63;;
27539;SDS011;15906;52.046;4.724;2022-09-29T02:21:18;13.15;;;8.50;;
27539;SDS011;15906;52.046;4.724;2022-09-29T02:23:46;11.35;;;8.38;;
27539;SDS011;15906;52.046;4.724;2022-09-29T02:26:12;15.70;;;10.68;;
27539;SDS011;15906;52.046;4.724;2022-09-29T02:28:38;11.85;;;8.52;;
27539;SDS011;15906;52.046;4.724;2022-09-29T02:31:05;13.85;;;8.60;;
27539;SDS011;15906;52.046;4.724;2022-09-29T02:33:31;13.55;;;8.07;;
27539;SDS011;15906;52.046;4.724;2022-09-29T02:36:06;11.15;;;8.38;;
27539;SDS011;15906;52.046;4.724;2022-09-29T02:38:56;11.45;;;8.85;;
27539;SDS011;15906;52.046;4.724;2022-09-29T02:47:16;12.48;;;8.60;;
27539;SDS011;15906;52.046;4.724;2022-09-29T02:53:08;10.95;;;7.95;;
27539;SDS011;15906;52.046;4.724;2022-09-29T02:56:19;9.40;;;7.55;;
27539;SDS011;15906;52.046;4.724;2022-09-29T02:58:59;9.95;;;8.15;;
27539;SDS011;15906;52.046;4.724;2022-09-29T03:01:31;11.85;;;8.80;;
27539;SDS011;15906;52.046;4.724;2022-09-29T03:03:57;11.48;;;8.88;;
27539;SDS011;15906;52.046;4.724;2022-09-29T03:06:23;13.52;;;8.90;;
27539;SDS011;15906;52.046;4.724;2022-09-29T03:08:50;12.80;;;9.13;;
27539;SDS011;15906;52.046;4.724;2022-09-29T03:11:15;13.60;;;9.70;;
27539;SDS011;15906;52.046;4.724;2022-09-29T03:13:41;11.55;;;9.25;;
27539;SDS011;15906;52.046;4.724;2022-09-29T03:16:06;16.13;;;9.20;;
27539;SDS011;15906;52.046;4.724;2022-09-29T03:18:32;12.82;;;9.25;;
27539;SDS011;15906;52.046;4.724;2022-09-29T03:20:57;13.30;;;8.60;;
27539;SDS011;15906;52.046;4.724;2022-09-29T03:23:23;12.60;;;9.48;;
27539;SDS011;15906;52.046;4.724;2022-09-29T03:25:48;12.40;;;8.95;;
27539;SDS011;15906;52.046;4.724;2022-09-29T03:28:14;13.55;;;9.20;;
27539;SDS011;15906;52.046;4.724;2022-09-29T03:30:40;11.70;;;9.07;;
27539;SDS011;15906;52.046;4.724;2022-09-29T03:33:06;17.42;;;9.95;;
27539;SDS011;15906;52.046;4.724;2022-09-29T03:35:31;13.75;;;9.10;;
27539;SDS011;15906;52.046;4.724;2022-09-29T03:38:00;12.30;;;9.30;;
27539;SDS011;15906;52.046;4.724;2022-09-29T03:40:26;12.45;;;9.70;;
27539;SDS011;15906;52.046;4.724;2022-09-29T03:42:52;12.30;;;9.25;;
27539;SDS011;15906;52.046;4.724;2022-09-29T03:45:17;14.18;;;9.18;;
27539;SDS011;15906;52.046;4.724;2022-09-29T03:47:43;11.93;;;8.82;;
27539;SDS011;15906;52.046;4.724;2022-09-29T03:50:09;13.63;;;8.73;;
27539;SDS011;15906;52.046;4.724;2022-09-29T03:52:34;14.55;;;10.75;;
27539;SDS011;15906;52.046;4.724;2022-09-29T03:55:00;10.95;;;8.98;;
27539;SDS011;15906;52.046;4.724;2022-09-29T03:57:26;12.30;;;9.85;;
27539;SDS011;15906;52.046;4.724;2022-09-29T03:59:51;16.95;;;9.50;;
27539;SDS011;15906;52.046;4.724;2022-09-29T04:02:17;12.02;;;9.48;;
27539;SDS011;15906;52.046;4.724;2022-09-29T04:04:43;15.48;;;8.98;;
27539;SDS011;15906;52.046;4.724;2022-09-29T04:07:09;16.08;;;9.35;;
27539;SDS011;15906;52.046;4.724;2022-09-29T04:09:34;13.10;;;9.85;;
27539;SDS011;15906;52.046;4.724;2022-09-29T04:12:00;10.63;;;8.43;;
27539;SDS011;15906;52.046;4.724;2022-09-29T04:14:26;12.30;;;9.13;;
27539;SDS011;15906;52.046;4.724;2022-09-29T04:16:51;13.13;;;9.07;;
27539;SDS011;15906;52.046;4.724;2022-09-29T04:19:17;12.45;;;9.68;;
27539;SDS011;15906;52.046;4.724;2022-09-29T04:21:42;14.10;;;9.40;;
27539;SDS011;15906;52.046;4.724;2022-09-29T04:24:07;16.35;;;9.65;;
27539;SDS011;15906;52.046;4.724;2022-09-29T04:26:33;14.50;;;9.50;;
27539;SDS011;15906;52.046;4.724;2022-09-29T04:28:59;19.05;;;9.80;;
27539;SDS011;15906;52.046;4.724;2022-09-29T04:31:24;17.30;;;10.05;;
27539;SDS011;15906;52.046;4.724;2022-09-29T04:33:50;13.15;;;9.85;;
27539;SDS011;15906;52.046;4.724;2022-09-29T04:36:16;15.95;;;9.30;;
27539;SDS011;15906;52.046;4.724;2022-09-29T04:38:41;13.88;;;9.07;;
27539;SDS011;15906;52.046;4.724;2022-09-29T04:41:07;12.75;;;9.80;;
27539;SDS011;15906;52.046;4.724;2022-09-29T04:43:33;12.45;;;8.88;;
27539;SDS011;15906;52.046;4.724;2022-09-29T04:46:05;12.30;;;8.45;;
27539;SDS011;15906;52.046;4.724;2022-09-29T04:48:31;12.75;;;9.38;;
27539;SDS011;15906;52.046;4.724;2022-09-29T04:50:57;12.20;;;8.52;;
27539;SDS011;15906;52.046;4.724;2022-09-29T04:53:23;11.02;;;8.48;;
27539;SDS011;15906;52.046;4.724;2022-09-29T04:55:49;9.50;;;7.47;;
27539;SDS011;15906;52.046;4.724;2022-09-29T04:58:14;10.80;;;8.50;;
27539;SDS011;15906;52.046;4.724;2022-09-29T05:00:40;11.95;;;8.77;;
27539;SDS011;15906;52.046;4.724;2022-09-29T05:03:05;13.00;;;8.57;;
27539;SDS011;15906;52.046;4.724;2022-09-29T05:05:31;11.55;;;8.27;;
27539;SDS011;15906;52.046;4.724;2022-09-29T05:07:56;9.27;;;7.10;;
27539;SDS011;15906;52.046;4.724;2022-09-29T05:10:23;11.25;;;7.85;;
27539;SDS011;15906;52.046;4.724;2022-09-29T05:12:49;9.30;;;7.32;;
27539;SDS011;15906;52.046;4.724;2022-09-29T05:15:16;10.77;;;7.90;;
27539;SDS011;15906;52.046;4.724;2022-09-29T05:17:42;11.70;;;8.45;;
27539;SDS011;15906;52.046;4.724;2022-09-29T05:20:08;14.27;;;8.63;;
27539;SDS011;15906;52.046;4.724;2022-09-29T05:22:34;13.30;;;8.30;;
27539;SDS011;15906;52.046;4.724;2022-09-29T05:24:59;10.15;;;8.27;;
27539;SDS011;15906;52.046;4.724;2022-09-29T05:27:25;11.95;;;8.20;;
27539;SDS011;15906;52.046;4.724;2022-09-29T05:29:50;15.23;;;9.38;;
27539;SDS011;15906;52.046;4.724;2022-09-29T05:32:16;13.23;;;9.40;;
27539;SDS011;15906;52.046;4.724;2022-09-29T05:34:41;13.00;;;10.38;;
27539;SDS011;15906;52.046;4.724;2022-09-29T05:37:07;13.63;;;10.20;;
27539;SDS011;15906;52.046;4.724;2022-09-29T05:39:33;22.05;;;11.35;;
27539;SDS011;15906;52.046;4.724;2022-09-29T05:42:01;16.40;;;11.68;;
27539;SDS011;15906;52.046;4.724;2022-09-29T05:44:27;23.95;;;11.90;;
27539;SDS011;15906;52.046;4.724;2022-09-29T05:46:53;19.25;;;10.43;;
27539;SDS011;15906;52.046;4.724;2022-09-29T05:49:18;21.75;;;11.82;;
27539;SDS011;15906;52.046;4.724;2022-09-29T05:51:44;13.30;;;9.35;;
27539;SDS011;15906;52.046;4.724;2022-09-29T05:54:10;22.60;;;10.63;;
27539;SDS011;15906;52.046;4.724;2022-09-29T05:56:35;15.45;;;10.05;;
27539;SDS011;15906;52.046;4.724;2022-09-29T05:59:02;19.90;;;9.93;;
27539;SDS011;15906;52.046;4.724;2022-09-29T06:01:27;14.20;;;8.93;;
27539;SDS011;15906;52.046;4.724;2022-09-29T06:03:53;31.70;;;9.20;;
27539;SDS011;15906;52.046;4.724;2022-09-29T06:06:21;43.78;;;9.27;;
27539;SDS011;15906;52.046;4.724;2022-09-29T06:08:48;40.05;;;8.73;;
27539;SDS011;15906;52.046;4.724;2022-09-29T06:11:15;18.48;;;7.63;;
27539;SDS011;15906;52.046;4.724;2022-09-29T06:13:48;28.42;;;7.97;;
27539;SDS011;15906;52.046;4.724;2022-09-29T06:16:17;69.80;;;9.25;;
27539;SDS011;15906;52.046;4.724;2022-09-29T06:18:44;38.05;;;7.97;;
27539;SDS011;15906;52.046;4.724;2022-09-29T06:21:11;38.67;;;8.90;;
27539;SDS011;15906;52.046;4.724;2022-09-29T06:23:38;69.13;;;9.60;;
27539;SDS011;15906;52.046;4.724;2022-09-29T06:26:08;13.65;;;7.88;;
27539;SDS011;15906;52.046;4.724;2022-09-29T06:28:35;28.95;;;8.27;;
27539;SDS011;15906;52.046;4.724;2022-09-29T06:31:05;42.10;;;9.52;;
27539;SDS011;15906;52.046;4.724;2022-09-29T06:33:33;61.60;;;9.32;;
27539;SDS011;15906;52.046;4.724;2022-09-29T06:36:01;18.67;;;8.00;;
27539;SDS011;15906;52.046;4.724;2022-09-29T06:38:47;35.72;;;9.73;;
27539;SDS011;15906;52.046;4.724;2022-09-29T06:41:13;34.30;;;10.13;;
27539;SDS011;15906;52.046;4.724;2022-09-29T06:43:38;24.13;;;9.90;;
27539;SDS011;15906;52.046;4.724;2022-09-29T06:46:04;24.67;;;10.57;;
27539;SDS011;15906;52.046;4.724;2022-09-29T06:48:30;37.97;;;11.50;;
27539;SDS011;15906;52.046;4.724;2022-09-29T06:50:55;30.55;;;10.00;;
27539;SDS011;15906;52.046;4.724;2022-09-29T06:53:21;38.42;;;11.00;;
27539;SDS011;15906;52.046;4.724;2022-09-29T06:55:51;17.95;;;10.45;;
27539;SDS011;15906;52.046;4.724;2022-09-29T06:58:17;32.40;;;12.05;;
27539;SDS011;15906;52.046;4.724;2022-09-29T07:00:42;27.00;;;12.02;;
27539;SDS011;15906;52.046;4.724;2022-09-29T07:03:08;45.17;;;12.63;;
27539;SDS011;15906;52.046;4.724;2022-09-29T07:05:34;50.53;;;11.90;;
27539;SDS011;15906;52.046;4.724;2022-09-29T07:07:59;34.15;;;11.57;;
27539;SDS011;15906;52.046;4.724;2022-09-29T07:10:25;19.77;;;11.40;;
27539;SDS011;15906;52.046;4.724;2022-09-29T07:12:51;24.17;;;12.00;;
27539;SDS011;15906;52.046;4.724;2022-09-29T07:15:16;20.88;;;12.00;;
27539;SDS011;15906;52.046;4.724;2022-09-29T07:17:42;22.60;;;12.80;;
27539;SDS011;15906;52.046;4.724;2022-09-29T07:20:07;39.30;;;12.85;;
27539;SDS011;15906;52.046;4.724;2022-09-29T07:22:33;24.90;;;13.20;;
27539;SDS011;15906;52.046;4.724;2022-09-29T07:24:58;22.73;;;12.98;;
27539;SDS011;15906;52.046;4.724;2022-09-29T07:27:24;16.00;;;12.05;;
27539;SDS011;15906;52.046;4.724;2022-09-29T07:29:50;21.20;;;12.57;;
27539;SDS011;15906;52.046;4.724;2022-09-29T07:32:16;18.20;;;12.55;;
27539;SDS011;15906;52.046;4.724;2022-09-29T07:34:42;20.27;;;13.65;;
27539;SDS011;15906;52.046;4.724;2022-09-29T07:37:07;20.13;;;14.52;;
27539;SDS011;15906;52.046;4.724;2022-09-29T07:39:33;24.08;;;14.82;;
27539;SDS011;15906;52.046;4.724;2022-09-29T07:41:58;22.52;;;14.88;;
27539;SDS011;15906;52.046;4.724;2022-09-29T07:44:24;24.70;;;14.98;;
27539;SDS011;15906;52.046;4.724;2022-09-29T07:46:49;23.42;;;14.93;;
27539;SDS011;15906;52.046;4.724;2022-09-29T07:49:15;29.27;;;15.27;;
27539;SDS011;15906;52.046;4.724;2022-09-29T07:51:41;22.67;;;15.20;;
27539;SDS011;15906;52.046;4.724;2022-09-29T07:54:06;24.38;;;16.20;;
27539;SDS011;15906;52.046;4.724;2022-09-29T07:56:32;20.70;;;16.33;;
27539;SDS011;15906;52.046;4.724;2022-09-29T07:58:59;22.65;;;16.33;;
27539;SDS011;15906;52.046;4.724;2022-09-29T08:01:26;24.23;;;17.00;;
27539;SDS011;15906;52.046;4.724;2022-09-29T08:03:52;22.02;;;17.10;;
27539;SDS011;15906;52.046;4.724;2022-09-29T08:06:19;22.98;;;17.20;;
27539;SDS011;15906;52.046;4.724;2022-09-29T08:08:46;24.33;;;16.90;;
27539;SDS011;15906;52.046;4.724;2022-09-29T08:11:13;23.40;;;17.25;;
27539;SDS011;15906;52.046;4.724;2022-09-29T08:13:41;23.77;;;17.23;;
27539;SDS011;15906;52.046;4.724;2022-09-29T08:16:07;22.73;;;17.85;;
27539;SDS011;15906;52.046;4.724;2022-09-29T08:18:35;25.27;;;18.23;;
27539;SDS011;15906;52.046;4.724;2022-09-29T08:21:01;27.13;;;20.52;;
27539;SDS011;15906;52.046;4.724;2022-09-29T08:23:27;27.85;;;20.52;;
27539;SDS011;15906;52.046;4.724;2022-09-29T08:26:00;27.27;;;20.38;;
27539;SDS011;15906;52.046;4.724;2022-09-29T08:28:26;27.55;;;21.02;;
27539;SDS011;15906;52.046;4.724;2022-09-29T08:30:53;28.63;;;20.95;;
27539;SDS011;15906;52.046;4.724;2022-09-29T08:33:18;29.80;;;21.20;;
27539;SDS011;15906;52.046;4.724;2022-09-29T08:35:43;24.23;;;18.75;;
27539;SDS011;15906;52.046;4.724;2022-09-29T08:38:09;24.30;;;17.17;;
27539;SDS011;15906;52.046;4.724;2022-09-29T08:40:34;20.83;;;16.50;;
27539;SDS011;15906;52.046;4.724;2022-09-29T08:43:07;19.45;;;15.50;;
27539;SDS011;15906;52.046;4.724;2022-09-29T08:45:43;21.08;;;16.10;;
27539;SDS011;15906;52.046;4.724;2022-09-29T08:48:13;20.75;;;15.65;;
27539;SDS011;15906;52.046;4.724;2022-09-29T08:50:47;21.67;;;14.18;;
27539;SDS011;15906;52.046;4.724;2022-09-29T08:53:21;18.40;;;14.90;;
27539;SDS011;15906;52.046;4.724;2022-09-29T08:55:52;19.48;;;15.50;;
27539;SDS011;15906;52.046;4.724;2022-09-29T08:58:34;18.40;;;13.43;;
27539;SDS011;15906;52.046;4.724;2022-09-29T09:04:02;14.98;;;12.30;;
27539;SDS011;15906;52.046;4.724;2022-09-29T09:06:51;18.77;;;12.73;;
27539;SDS011;15906;52.046;4.724;2022-09-29T09:09:26;20.23;;;13.30;;
27539;SDS011;15906;52.046;4.724;2022-09-29T09:20:32;17.13;;;13.95;;
27539;SDS011;15906;52.046;4.724;2022-09-29T09:23:52;16.98;;;12.98;;
27539;SDS011;15906;52.046;4.724;2022-09-29T09:26:15;17.77;;;13.60;;
27539;SDS011;15906;52.046;4.724;2022-09-29T09:28:49;18.25;;;13.68;;
27539;SDS011;15906;52.046;4.724;2022-09-29T09:31:23;20.40;;;14.57;;
27539;SDS011;15906;52.046;4.724;2022-09-29T09:37:09;17.67;;;12.98;;
27539;SDS011;15906;52.046;4.724;2022-09-29T09:39:15;20.48;;;14.60;;
27539;SDS011;15906;52.046;4.724;2022-09-29T09:41:46;17.27;;;13.75;;
27539;SDS011;15906;52.046;4.724;2022-09-29T09:44:16;16.58;;;14.38;;
27539;SDS011;15906;52.046;4.724;2022-09-29T09:46:50;16.88;;;13.48;;
27539;SDS011;15906;52.046;4.724;2022-09-29T09:49:25;14.88;;;12.30;;
27539;SDS011;15906;52.046;4.724;2022-09-29T09:51:58;15.63;;;12.90;;
27539;SDS011;15906;52.046;4.724;2022-09-29T09:54:40;16.85;;;12.38;;
27539;SDS011;15906;52.046;4.724;2022-09-29T09:58:11;14.90;;;12.48;;
27539;SDS011;15906;52.046;4.724;2022-09-29T10:00:15;15.38;;;12.18;;
27539;SDS011;15906;52.046;4.724;2022-09-29T10:02:53;14.88;;;10.60;;
27539;SDS011;15906;52.046;4.724;2022-09-29T10:05:21;15.23;;;10.55;;
27539;SDS011;15906;52.046;4.724;2022-09-29T10:07:50;11.90;;;10.15;;
27539;SDS011;15906;52.046;4.724;2022-09-29T10:10:20;11.98;;;10.63;;
27539;SDS011;15906;52.046;4.724;2022-09-29T10:12:49;10.90;;;9.75;;
27539;SDS011;15906;52.046;4.724;2022-09-29T10:15:21;10.90;;;9.35;;
27539;SDS011;15906;52.046;4.724;2022-09-29T10:18:00;11.98;;;10.27;;
27539;SDS011;15906;52.046;4.724;2022-09-29T10:20:34;12.93;;;9.65;;
27539;SDS011;15906;52.046;4.724;2022-09-29T10:23:17;12.90;;;9.57;;
27539;SDS011;15906;52.046;4.724;2022-09-29T10:25:58;12.63;;;9.73;;
27539;SDS011;15906;52.046;4.724;2022-09-29T10:28:40;10.60;;;9.18;;
27539;SDS011;15906;52.046;4.724;2022-09-29T10:31:17;9.20;;;7.47;;
27539;SDS011;15906;52.046;4.724;2022-09-29T10:33:51;9.80;;;8.00;;
27539;SDS011;15906;52.046;4.724;2022-09-29T10:36:20;9.05;;;7.60;;
27539;SDS011;15906;52.046;4.724;2022-09-29T10:38:47;9.63;;;7.60;;
27539;SDS011;15906;52.046;4.724;2022-09-29T10:41:15;10.02;;;7.38;;
27539;SDS011;15906;52.046;4.724;2022-09-29T10:43:44;9.68;;;6.65;;
27539;SDS011;15906;52.046;4.724;2022-09-29T10:49:19;8.18;;;6.13;;
27539;SDS011;15906;52.046;4.724;2022-09-29T10:52:04;12.13;;;7.00;;
27539;SDS011;15906;52.046;4.724;2022-09-29T10:54:35;9.60;;;6.45;;
27539;SDS011;15906;52.046;4.724;2022-09-29T10:57:13;6.90;;;5.30;;
27539;SDS011;15906;52.046;4.724;2022-09-29T10:59:46;8.25;;;5.13;;
27539;SDS011;15906;52.046;4.724;2022-09-29T11:02:16;6.95;;;4.70;;
27539;SDS011;15906;52.046;4.724;2022-09-29T11:04:57;5.32;;;3.88;;
27539;SDS011;15906;52.046;4.724;2022-09-29T11:07:26;4.55;;;3.17;;
27539;SDS011;15906;52.046;4.724;2022-09-29T11:09:53;3.92;;;3.38;;
27539;SDS011;15906;52.046;4.724;2022-09-29T11:12:30;5.32;;;3.05;;
27539;SDS011;15906;52.046;4.724;2022-09-29T11:15:20;3.55;;;1.88;;
27539;SDS011;15906;52.046;4.724;2022-09-29T11:17:51;1.90;;;1.20;;
27539;SDS011;15906;52.046;4.724;2022-09-29T11:20:17;0.77;;;0.65;;
27539;SDS011;15906;52.046;4.724;2022-09-29T11:25:25;5.18;;;0.80;;
27539;SDS011;15906;52.046;4.724;2022-09-29T11:28:32;1.67;;;0.60;;
27539;SDS011;15906;52.046;4.724;2022-09-29T11:36:23;5.25;;;2.83;;
27539;SDS011;15906;52.046;4.724;2022-09-29T11:39:36;3.97;;;2.92;;
27539;SDS011;15906;52.046;4.724;2022-09-29T11:42:01;4.82;;;2.70;;
27539;SDS011;15906;52.046;4.724;2022-09-29T11:47:24;3.83;;;2.53;;
27539;SDS011;15906;52.046;4.724;2022-09-29T12:01:25;3.22;;;2.10;;
27539;SDS011;15906;52.046;4.724;2022-09-29T12:04:03;2.15;;;1.77;;
27539;SDS011;15906;52.046;4.724;2022-09-29T12:09:19;0.50;;;0.50;;
27539;SDS011;15906;52.046;4.724;2022-09-29T12:17:52;1.25;;;0.90;;
27539;SDS011;15906;52.046;4.724;2022-09-29T12:20:22;1.30;;;0.90;;
27539;SDS011;15906;52.046;4.724;2022-09-29T12:22:51;2.22;;;1.48;;
27539;SDS011;15906;52.046;4.724;2022-09-29T12:25:19;1.15;;;0.95;;
27539;SDS011;15906;52.046;4.724;2022-09-29T12:27:49;1.92;;;1.15;;
27539;SDS011;15906;52.046;4.724;2022-09-29T12:30:25;2.67;;;1.92;;
27539;SDS011;15906;52.046;4.724;2022-09-29T12:33:08;3.00;;;1.90;;
27539;SDS011;15906;52.046;4.724;2022-09-29T12:35:50;4.10;;;2.20;;
27539;SDS011;15906;52.046;4.724;2022-09-29T12:38:33;2.78;;;1.95;;
27539;SDS011;15906;52.046;4.724;2022-09-29T12:41:10;8.77;;;2.47;;
27539;SDS011;15906;52.046;4.724;2022-09-29T12:46:44;1.17;;;1.08;;
27539;SDS011;15906;52.046;4.724;2022-09-29T12:49:15;0.90;;;0.80;;
27539;SDS011;15906;52.046;4.724;2022-09-29T12:51:49;1.00;;;0.90;;
27539;SDS011;15906;52.046;4.724;2022-09-29T12:54:27;1.70;;;0.70;;
27539;SDS011;15906;52.046;4.724;2022-09-29T12:57:00;0.68;;;0.60;;
27539;SDS011;15906;52.046;4.724;2022-09-29T12:59:32;4.07;;;1.00;;
27539;SDS011;15906;52.046;4.724;2022-09-29T13:02:06;1.52;;;0.80;;
27539;SDS011;15906;52.046;4.724;2022-09-29T13:05:00;3.10;;;1.00;;
27539;SDS011;15906;52.046;4.724;2022-09-29T13:13:12;1.67;;;1.10;;
27539;SDS011;15906;52.046;4.724;2022-09-29T13:16:08;0.68;;;0.65;;
27539;SDS011;15906;52.046;4.724;2022-09-29T13:22:06;1.25;;;0.80;;
27539;SDS011;15906;52.046;4.724;2022-09-29T13:25:15;1.10;;;0.98;;
27539;SDS011;15906;52.046;4.724;2022-09-29T13:27:53;0.70;;;0.70;;
27539;SDS011;15906;52.046;4.724;2022-09-29T13:30:25;1.17;;;0.60;;
27539;SDS011;15906;52.046;4.724;2022-09-29T13:33:15;1.42;;;0.73;;
27539;SDS011;15906;52.046;4.724;2022-09-29T13:35:47;1.85;;;0.88;;
27539;SDS011;15906;52.046;4.724;2022-09-29T13:38:19;1.50;;;0.70;;
27539;SDS011;15906;52.046;4.724;2022-09-29T13:51:44;1.20;;;0.80;;
27539;SDS011;15906;52.046;4.724;2022-09-29T13:54:27;2.10;;;0.95;;
27539;SDS011;15906;52.046;4.724;2022-09-29T14:02:26;3.25;;;1.27;;
27539;SDS011;15906;52.046;4.724;2022-09-29T14:04:57;2.78;;;1.35;;
27539;SDS011;15906;52.046;4.724;2022-09-29T14:12:56;2.42;;;1.40;;
27539;SDS011;15906;52.046;4.724;2022-09-29T14:15:27;2.92;;;1.38;;
27539;SDS011;15906;52.046;4.724;2022-09-29T14:18:04;2.90;;;1.50;;
27539;SDS011;15906;52.046;4.724;2022-09-29T14:20:55;1.52;;;1.13;;
27539;SDS011;15906;52.046;4.724;2022-09-29T14:29:12;4.38;;;1.27;;
27539;SDS011;15906;52.046;4.724;2022-09-29T14:31:45;2.97;;;1.02;;
27539;SDS011;15906;52.046;4.724;2022-09-29T14:34:15;1.52;;;1.05;;
27539;SDS011;15906;52.046;4.724;2022-09-29T14:36:42;2.90;;;1.10;;
27539;SDS011;15906;52.046;4.724;2022-09-29T14:39:11;1.98;;;1.20;;
27539;SDS011;15906;52.046;4.724;2022-09-29T14:41:43;1.85;;;0.95;;
27539;SDS011;15906;52.046;4.724;2022-09-29T14:44:12;1.30;;;1.17;;
27539;SDS011;15906;52.046;4.724;2022-09-29T14:47:30;1.45;;;1.13;;
27539;SDS011;15906;52.046;4.724;2022-09-29T14:56:27;1.27;;;0.90;;
27539;SDS011;15906;52.046;4.724;2022-09-29T15:02:15;9.77;;;1.10;;
27539;SDS011;15906;52.046;4.724;2022-09-29T15:04:44;2.05;;;1.15;;
27539;SDS011;15906;52.046;4.724;2022-09-29T15:07:15;1.80;;;1.35;;
27539;SDS011;15906;52.046;4.724;2022-09-29T15:09:45;1.30;;;1.20;;
27539;SDS011;15906;52.046;4.724;2022-09-29T15:12:15;1.35;;;1.10;;
27539;SDS011;15906;52.046;4.724;2022-09-29T15:14:45;3.92;;;1.20;;
27539;SDS011;15906;52.046;4.724;2022-09-29T15:19:59;5.78;;;1.80;;
27539;SDS011;15906;52.046;4.724;2022-09-29T15:25:35;1.83;;;1.40;;
27539;SDS011;15906;52.046;4.724;2022-09-29T15:30:47;1.65;;;1.30;;
27539;SDS011;15906;52.046;4.724;2022-09-29T15:33:24;4.45;;;2.10;;
27539;SDS011;15906;52.046;4.724;2022-09-29T15:35:56;2.08;;;1.73;;
27539;SDS011;15906;52.046;4.724;2022-09-29T15:38:42;4.10;;;1.70;;
27539;SDS011;15906;52.046;4.724;2022-09-29T15:46:20;1.90;;;1.45;;
27539;SDS011;15906;52.046;4.724;2022-09-29T15:49:03;2.45;;;1.50;;
27539;SDS011;15906;52.046;4.724;2022-09-29T15:51:39;2.47;;;1.85;;
27539;SDS011;15906;52.046;4.724;2022-09-29T15:54:09;3.42;;;1.45;;
27539;SDS011;15906;52.046;4.724;2022-09-29T15:56:36;2.22;;;1.27;;
27539;SDS011;15906;52.046;4.724;2022-09-29T15:59:37;2.17;;;1.30;;
27539;SDS011;15906;52.046;4.724;2022-09-29T16:02:14;4.20;;;1.00;;
27539;SDS011;15906;52.046;4.724;2022-09-29T16:04:53;5.78;;;0.80;;
27539;SDS011;15906;52.046;4.724;2022-09-29T16:07:21;1.10;;;0.73;;
27539;SDS011;15906;52.046;4.724;2022-09-29T16:09:51;1.80;;;0.85;;
27539;SDS011;15906;52.046;4.724;2022-09-29T16:12:21;2.28;;;0.70;;
27539;SDS011;15906;52.046;4.724;2022-09-29T16:14:47;2.80;;;0.80;;
27539;SDS011;15906;52.046;4.724;2022-09-29T16:17:19;1.95;;;0.93;;
27539;SDS011;15906;52.046;4.724;2022-09-29T16:19:45;2.95;;;1.25;;
27539;SDS011;15906;52.046;4.724;2022-09-29T16:22:18;1.42;;;0.88;;
27539;SDS011;15906;52.046;4.724;2022-09-29T16:24:52;1.63;;;0.73;;
27539;SDS011;15906;52.046;4.724;2022-09-29T16:27:37;3.80;;;0.77;;
27539;SDS011;15906;52.046;4.724;2022-09-29T16:30:20;1.63;;;1.00;;
27539;SDS011;15906;52.046;4.724;2022-09-29T16:32:52;3.40;;;1.20;;
27539;SDS011;15906;52.046;4.724;2022-09-29T16:35:36;2.08;;;1.10;;
27539;SDS011;15906;52.046;4.724;2022-09-29T16:38:28;2.38;;;1.08;;
27539;SDS011;15906;52.046;4.724;2022-09-29T16:41:05;2.45;;;1.30;;
27539;SDS011;15906;52.046;4.724;2022-09-29T16:43:33;8.70;;;1.73;;
27539;SDS011;15906;52.046;4.724;2022-09-29T16:46:00;3.80;;;1.33;;
27539;SDS011;15906;52.046;4.724;2022-09-29T16:48:30;2.70;;;1.70;;
27539;SDS011;15906;52.046;4.724;2022-09-29T16:51:03;3.75;;;1.60;;
27539;SDS011;15906;52.046;4.724;2022-09-29T16:53:33;4.03;;;1.50;;
27539;SDS011;15906;52.046;4.724;2022-09-29T16:56:00;2.38;;;1.42;;
27539;SDS011;15906;52.046;4.724;2022-09-29T16:58:29;4.38;;;1.55;;
27539;SDS011;15906;52.046;4.724;2022-09-29T17:00:56;2.70;;;1.17;;
27539;SDS011;15906;52.046;4.724;2022-09-29T17:03:21;3.03;;;1.50;;
27539;SDS011;15906;52.046;4.724;2022-09-29T17:05:47;4.70;;;2.00;;
27539;SDS011;15906;52.046;4.724;2022-09-29T17:08:26;3.25;;;1.85;;
27539;SDS011;15906;52.046;4.724;2022-09-29T17:10:55;6.30;;;1.90;;
27539;SDS011;15906;52.046;4.724;2022-09-29T17:13:21;3.42;;;2.00;;
27539;SDS011;15906;52.046;4.724;2022-09-29T17:15:48;3.53;;;1.98;;
27539;SDS011;15906;52.046;4.724;2022-09-29T17:18:16;2.75;;;1.80;;
27539;SDS011;15906;52.046;4.724;2022-09-29T17:20:43;3.45;;;1.95;;